Alabaster, AL (35007)

4:23 PM CDT on September 01, 2014 (GMT -0500)
apache ridge | Change Station
CLOSE
Current Station
Personal Weather Station
Location: Alabaster, AL
Elevation: 522 ft
Nearby Weather Stations

Elev 522 ft 33.25 °N, 86.83 °W | Updated 10 minutes ago

Partly Cloudy
Partly Cloudy
91.9 °F
Feels Like 99 °F
N
1.1
Wind Variable Wind from ENE

Today
High -- | Low -- °F
--% Chance of Precip.
Yesterday
High -- | Low -- °F
Precip. -- in
6:21 AM 7:12 PM
Waxing Crescent, 44% visible
Pressure 30.01 in
Visibility 10.0 miles
Clouds Few 6500 ft
Heat Index 99 °F
Dew Point 71 °F
Humidity 51%
Rainfall 0.00 in
Snow Depth Not available.
UV 5 out of 12
Pollen 9.70 out of 12
Ozone Good
PM2.5 Moderate
Flu Activity Not available.
METAR KEET 012053Z AUTO 21007KT 170V250 10SM FEW065 34/19 A3004 RMK AO2 SLP162 T03390194 58021

More Conditions Fewer Conditions

Pressure 30.01 in
Visibility 10.0 miles
Clouds Few 6500 ft
Heat Index 99 °F
Dew Point 71 °F
Humidity 51%
Rainfall 0.00 in
Snow Depth Not available.
UV 5 out of 12
Pollen 9.70 out of 12
Ozone Good
PM2.5 Moderate
Flu Activity Not available.
METAR KEET 012053Z AUTO 21007KT 170V250 10SM FEW065 34/19 A3004 RMK AO2 SLP162 T03390194 58021

More Conditions Fewer Conditions

10-Day Weather Forecast

Almanac

Astronomy

Sep. 01, 2014 Rise Set
Actual Time 6:21 AM CDT 7:12 PM CDT
Civil Twilight 5:56 AM CDT 7:37 PM CDT
Nautical Twilight 5:26 AM CDT 8:07 PM CDT
Astronomical Twilight 4:55 AM CDT 8:38 PM CDT
Moon 12:46 PM CDT 11:34 PM CDT
Length of Visible Light 13h 41m
Length of Day
12h 50m
Tomorrow will be 1m 58s shorter.
Waxing Crescent, 44% of the Moon is Illuminated
Today
Waxing Crescent
Sep 2
First Quarter
Sep 8
Full
Sep 15
Last Quarter
Sep 24
New

Today's Extremes

State Highs State Lows

Community

WunderPhotos

Upload Photos

1,749,413 photos uploaded!

WunderBlogs® & News

Nearby

Air Quality

  Air Quality AQ Index Pollutant
Yesterday Good
PM10
Yesterday Good
OZONE
Current Moderate
PM2.5
Current Good
OZONE
Monday Good
PM2.5
Monday Good
OZONE
Tuesday Good
PM2.5
Tuesday Good
OZONE

Snow Depth

Station Depth Elevation
No new snow has been reported.

Earthquake Activity

City Distance Mag. Time & Date
No recent earthquake activity has been reported nearby.
Minimum magnitude displayed is 2.5.

Coastal Water Temperatures

Place Temperature
No Stations Reporting

Nearby Weather Stations